Time;durP1;ratioP1;P1;durP2;ratioP2;P2;SDS_P1;SDS_P2;PMS_P1;PMS_P2;Temp;Humidity;BMP_temperature;BMP_pressure;BME280_temperature;BME280_humidity;BME280_pressure;Samples;Min_cycle;Max_cycle;Signal;HPM_P1;HPM_P2
2020/12/11 00:02:06;;;;;;;26.65;12.88;;;1.70;99.90;;;;;;4990959;28;20033;-78
2020/12/11 00:04:32;;;;;;;36.08;14.77;;;1.70;99.90;;;;;;4990768;28;20026;-78
2020/12/11 00:06:58;;;;;;;28.00;13.90;;;1.70;99.90;;;;;;4990808;28;20053;-78
2020/12/11 00:09:25;;;;;;;28.90;12.63;;;1.60;99.90;;;;;;4991683;28;20037;-78
2020/12/11 00:11:50;;;;;;;32.95;13.30;;;1.70;99.90;;;;;;4991238;28;20394;-78
2020/12/11 00:14:17;;;;;;;30.42;11.75;;;1.60;99.90;;;;;;4991120;28;20042;-78
2020/12/11 00:16:43;;;;;;;32.92;13.40;;;1.60;99.90;;;;;;4987769;28;20061;-78
2020/12/11 00:19:08;;;;;;;32.42;14.32;;;1.60;99.90;;;;;;4991487;28;20054;-79
2020/12/11 00:21:44;;;;;;;28.33;13.57;;;1.60;99.90;;;;;;4991709;28;20371;-78
2020/12/11 00:24:11;;;;;;;28.90;12.85;;;1.60;99.90;;;;;;4991244;28;20066;-78
2020/12/11 00:26:37;;;;;;;20.80;10.17;;;1.60;99.90;;;;;;4992086;28;20058;-79
2020/12/11 00:29:04;;;;;;;31.42;14.02;;;1.60;99.90;;;;;;4992693;28;20026;-79
2020/12/11 00:31:29;;;;;;;29.45;12.77;;;1.60;99.90;;;;;;4991000;28;20100;-79
2020/12/11 00:33:55;;;;;;;32.08;13.40;;;1.60;99.90;;;;;;4992500;28;20027;-79
2020/12/11 00:36:22;;;;;;;27.95;13.50;;;1.60;99.90;;;;;;4992598;28;20062;-77
2020/12/11 00:38:47;;;;;;;27.83;12.52;;;1.60;99.90;;;;;;4992606;28;20029;-77
2020/12/11 00:41:13;;;;;;;24.95;11.82;;;1.70;99.90;;;;;;4992048;28;20470;-77
2020/12/11 00:43:39;;;;;;;27.25;13.25;;;1.70;99.90;;;;;;4990517;28;20030;-78
2020/12/11 00:46:05;;;;;;;29.52;13.15;;;1.70;99.90;;;;;;5008012;28;20038;-78
2020/12/11 00:48:31;;;;;;;29.17;12.35;;;1.70;99.90;;;;;;5012747;28;20022;-76
2020/12/11 00:50:57;;;;;;;29.48;13.95;;;1.70;99.90;;;;;;5017621;28;20037;-78
2020/12/11 00:53:23;;;;;;;37.58;12.35;;;1.70;99.90;;;;;;5020375;28;20038;-78
2020/12/11 00:55:49;;;;;;;26.58;11.82;;;1.70;99.90;;;;;;5019102;28;20031;-78
2020/12/11 00:58:15;;;;;;;25.92;12.20;;;1.70;99.90;;;;;;5012643;28;20372;-77
2020/12/11 01:00:41;;;;;;;49.47;14.20;;;1.70;99.90;;;;;;5003713;28;20025;-78
2020/12/11 01:03:07;;;;;;;22.48;12.02;;;1.70;99.90;;;;;;5000616;28;20026;-77
2020/12/11 01:05:35;;;;;;;22.90;11.43;;;1.70;99.90;;;;;;4999244;28;20360;-79
2020/12/11 01:08:01;;;;;;;27.17;13.35;;;1.70;99.90;;;;;;4986958;28;20053;-79
2020/12/11 01:10:27;;;;;;;28.48;12.38;;;1.70;99.90;;;;;;4997850;28;20045;-78
2020/12/11 01:12:52;;;;;;;25.92;12.70;;;1.70;99.90;;;;;;4996055;28;20117;-79
2020/12/11 01:15:18;;;;;;;27.13;12.90;;;1.80;99.90;;;;;;4996313;28;20109;-78
2020/12/11 01:17:44;;;;;;;26.88;12.55;;;1.80;99.90;;;;;;4993938;28;20081;-79
2020/12/11 01:20:09;;;;;;;27.30;11.65;;;1.80;99.90;;;;;;4992451;28;20435;-78
2020/12/11 01:22:35;;;;;;;22.55;11.20;;;1.80;99.90;;;;;;4994210;28;20027;-78
2020/12/11 01:25:00;;;;;;;29.15;11.68;;;1.90;99.90;;;;;;4996244;28;20044;-78
2020/12/11 01:27:26;;;;;;;23.88;11.88;;;1.80;99.90;;;;;;4995343;28;20026;-78
2020/12/11 01:29:51;;;;;;;21.92;10.52;;;1.80;99.90;;;;;;4993959;28;20105;-78
2020/12/11 01:32:17;;;;;;;30.08;13.13;;;1.80;99.90;;;;;;4994281;28;20084;-78
2020/12/11 01:34:43;;;;;;;27.77;11.82;;;1.80;99.90;;;;;;4995086;28;20026;-78
2020/12/11 01:37:09;;;;;;;30.35;12.63;;;1.80;99.90;;;;;;4993670;28;20042;-78
2020/12/11 01:39:35;;;;;;;19.90;10.57;;;1.80;99.90;;;;;;4994002;28;20022;-78
2020/12/11 01:42:01;;;;;;;22.60;10.77;;;1.80;99.90;;;;;;4995236;28;20467;-78
2020/12/11 01:44:27;;;;;;;20.85;11.00;;;1.80;99.90;;;;;;4993599;28;20062;-78
2020/12/11 01:46:57;;;;;;;28.13;11.77;;;1.70;99.90;;;;;;4994435;28;20046;-78
2020/12/11 01:49:23;;;;;;;25.98;11.18;;;1.70;99.90;;;;;;4994713;28;20030;-78
2020/12/11 01:51:50;;;;;;;23.42;11.60;;;1.60;99.90;;;;;;4995614;28;20113;-78
2020/12/11 01:54:16;;;;;;;29.10;11.70;;;1.60;99.90;;;;;;4995948;28;20442;-78
2020/12/11 01:56:51;;;;;;;23.35;11.13;;;1.70;99.90;;;;;;4994370;28;20041;-78
2020/12/11 01:59:30;;;;;;;23.35;11.55;;;1.70;99.90;;;;;;4995643;28;20030;-78
2020/12/11 02:01:58;;;;;;;19.83;9.60;;;1.60;99.90;;;;;;4995655;28;20026;-78
2020/12/11 02:04:24;;;;;;;26.92;10.27;;;1.50;99.90;;;;;;4995964;28;20582;-78
2020/12/11 02:06:50;;;;;;;21.88;10.85;;;1.50;99.90;;;;;;5007517;28;20022;-79
2020/12/11 02:09:18;;;;;;;25.33;11.15;;;1.50;99.90;;;;;;5013580;28;20070;-78
2020/12/11 02:11:44;;;;;;;24.30;10.18;;;1.50;99.90;;;;;;5014497;28;20026;-78
2020/12/11 02:14:10;;;;;;;24.92;10.93;;;1.50;99.90;;;;;;5016394;28;20014;-79
2020/12/11 02:16:35;;;;;;;21.65;11.60;;;1.50;99.90;;;;;;5017828;28;20018;-79
2020/12/11 02:19:01;;;;;;;25.60;10.80;;;1.50;99.90;;;;;;5008799;28;20065;-78
2020/12/11 02:21:30;;;;;;;21.55;10.27;;;1.50;99.90;;;;;;5002454;28;20030;-78
2020/12/11 02:23:55;;;;;;;23.92;10.30;;;1.40;99.90;;;;;;4999011;28;20045;-78
2020/12/11 02:26:24;;;;;;;21.10;10.77;;;1.40;99.90;;;;;;4994918;28;20116;-78
2020/12/11 02:28:50;;;;;;;22.95;9.95;;;1.30;99.90;;;;;;4994213;28;20549;-79
2020/12/11 02:31:15;;;;;;;28.70;11.02;;;1.30;99.90;;;;;;4993666;28;20018;-78
2020/12/11 02:33:41;;;;;;;19.60;10.00;;;1.40;99.90;;;;;;4993412;28;20110;-79
2020/12/11 02:36:06;;;;;;;22.25;10.00;;;1.30;99.90;;;;;;4992872;28;20026;-78
2020/12/11 02:38:32;;;;;;;23.42;11.18;;;1.30;99.90;;;;;;4992939;28;20080;-78
2020/12/11 02:41:01;;;;;;;21.48;10.55;;;1.20;99.90;;;;;;4993661;28;20081;-79
2020/12/11 02:43:27;;;;;;;24.15;10.85;;;1.20;99.90;;;;;;4990271;28;20037;-79
2020/12/11 02:45:52;;;;;;;20.63;10.35;;;1.20;99.90;;;;;;4993231;28;20109;-76
2020/12/11 02:48:18;;;;;;;21.80;10.52;;;1.20;99.90;;;;;;4992735;28;20031;-79
2020/12/11 02:50:45;;;;;;;20.83;11.38;;;1.30;99.90;;;;;;4993682;28;20105;-79
2020/12/11 02:53:11;;;;;;;21.27;10.88;;;1.30;99.90;;;;;;4992862;28;20034;-79
2020/12/11 02:55:36;;;;;;;25.48;11.15;;;1.30;99.90;;;;;;4994458;28;20031;-79
2020/12/11 02:58:03;;;;;;;19.83;10.30;;;1.30;99.90;;;;;;4994350;28;20034;-79
2020/12/11 03:00:29;;;;;;;22.05;10.15;;;1.20;99.90;;;;;;4993406;28;20121;-79
2020/12/11 03:02:54;;;;;;;21.75;11.07;;;1.30;99.90;;;;;;4992447;28;20105;-77
2020/12/11 03:05:20;;;;;;;25.25;11.65;;;1.20;99.90;;;;;;4992875;28;20129;-79
2020/12/11 03:07:46;;;;;;;24.58;11.20;;;1.20;99.90;;;;;;4992564;28;20053;-77
2020/12/11 03:10:11;;;;;;;18.05;10.48;;;1.20;99.90;;;;;;4992889;28;20022;-77
2020/12/11 03:12:37;;;;;;;20.27;10.13;;;1.10;99.90;;;;;;4993011;28;20022;-77
2020/12/11 03:15:03;;;;;;;26.38;11.75;;;1.20;99.90;;;;;;4993261;28;20030;-77
2020/12/11 03:17:29;;;;;;;24.90;11.05;;;1.20;99.90;;;;;;4991584;28;20037;-77
2020/12/11 03:19:55;;;;;;;25.80;10.75;;;1.20;99.90;;;;;;4994132;28;20026;-77
2020/12/11 03:22:20;;;;;;;22.23;11.27;;;1.10;99.90;;;;;;4995517;28;20065;-77
2020/12/11 03:24:46;;;;;;;20.27;11.23;;;1.20;99.90;;;;;;5002372;28;20073;-77
2020/12/11 03:27:11;;;;;;;22.88;11.55;;;1.20;99.90;;;;;;5009421;28;20030;-77
2020/12/11 03:29:37;;;;;;;26.63;12.13;;;1.20;99.90;;;;;;5013636;28;20011;-77
2020/12/11 03:32:03;;;;;;;24.38;10.77;;;1.30;99.90;;;;;;5015303;28;20026;-77
2020/12/11 03:34:29;;;;;;;28.52;11.85;;;1.30;99.90;;;;;;5016269;28;20453;-77
2020/12/11 03:36:54;;;;;;;22.83;11.13;;;1.30;99.90;;;;;;5007365;28;20034;-78
2020/12/11 03:39:20;;;;;;;34.85;12.55;;;1.30;99.90;;;;;;5000880;28;20027;-77
2020/12/11 03:41:51;;;;;;;27.10;10.35;;;1.30;99.90;;;;;;4995969;28;20050;-77
2020/12/11 03:44:16;;;;;;;21.25;10.90;;;1.30;99.90;;;;;;4995399;28;20027;-77
2020/12/11 03:46:42;;;;;;;21.48;10.95;;;1.30;99.90;;;;;;4992209;28;20088;-76
2020/12/11 03:49:08;;;;;;;27.20;11.70;;;1.30;99.90;;;;;;4993350;28;20382;-77
2020/12/11 03:51:33;;;;;;;24.42;11.77;;;1.30;99.90;;;;;;4993339;28;20439;-77
2020/12/11 03:53:59;;;;;;;23.67;11.07;;;1.30;99.90;;;;;;4991213;28;20019;-77
2020/12/11 03:56:24;;;;;;;24.83;12.15;;;1.30;99.90;;;;;;4991716;28;20026;-77
2020/12/11 03:58:50;;;;;;;23.38;11.00;;;1.30;99.90;;;;;;4992200;28;20026;-77
2020/12/11 04:01:16;;;;;;;22.23;11.38;;;1.30;99.90;;;;;;4992726;28;20026;-77
2020/12/11 04:03:42;;;;;;;32.05;12.77;;;1.30;99.90;;;;;;4991869;28;20148;-77
2020/12/11 04:06:14;;;;;;;24.20;11.73;;;1.30;99.90;;;;;;4987827;28;20049;-78
2020/12/11 04:08:40;;;;;;;24.02;11.00;;;1.40;99.90;;;;;;4991583;28;20045;-77
2020/12/11 04:11:07;;;;;;;19.00;11.20;;;1.40;99.90;;;;;;4991391;28;20023;-77
2020/12/11 04:13:33;;;;;;;19.80;10.87;;;1.50;99.90;;;;;;4991588;28;20022;-77
2020/12/11 04:15:59;;;;;;;26.92;12.15;;;1.50;99.90;;;;;;4991272;28;20092;-77
2020/12/11 04:18:25;;;;;;;25.52;11.23;;;1.50;99.90;;;;;;4991676;28;20089;-77
2020/12/11 04:20:51;;;;;;;25.58;11.05;;;1.50;99.90;;;;;;4993527;28;20027;-77
2020/12/11 04:23:16;;;;;;;18.65;10.48;;;1.50;99.90;;;;;;4995146;28;20027;-77
2020/12/11 04:25:42;;;;;;;21.92;10.82;;;1.50;99.90;;;;;;4995939;28;20026;-77
2020/12/11 04:28:08;;;;;;;24.55;11.55;;;1.50;99.90;;;;;;4995146;28;20115;-77
2020/12/11 04:30:33;;;;;;;21.75;11.20;;;1.50;99.90;;;;;;4994957;28;20022;-77
2020/12/11 04:32:59;;;;;;;26.38;12.13;;;1.60;99.90;;;;;;4996637;28;20164;-77
2020/12/11 04:35:24;;;;;;;25.23;11.98;;;1.60;99.90;;;;;;4996984;28;20387;-77
2020/12/11 04:37:51;;;;;;;21.23;11.00;;;1.50;99.90;;;;;;4996431;28;20015;-77
2020/12/11 04:40:17;;;;;;;22.55;11.80;;;1.50;99.90;;;;;;5005117;28;20026;-77
2020/12/11 04:42:47;;;;;;;22.17;10.50;;;1.50;99.90;;;;;;5011635;28;20050;-77
2020/12/11 04:45:13;;;;;;;24.25;12.48;;;1.50;99.90;;;;;;5014729;28;20031;-78
2020/12/11 04:47:46;;;;;;;19.40;10.10;;;1.50;99.90;;;;;;5004886;28;20026;-77
2020/12/11 04:50:15;;;;;;;19.30;10.25;;;1.50;99.90;;;;;;4999772;28;20458;-77
2020/12/11 04:52:43;;;;;;;22.75;11.32;;;1.40;99.90;;;;;;4997442;28;20022;-78
2020/12/11 04:55:14;;;;;;;24.15;11.45;;;1.40;99.90;;;;;;4997118;28;20134;-78
2020/12/11 04:57:48;;;;;;;22.83;10.90;;;1.40;99.90;;;;;;4997271;28;20081;-78
2020/12/11 05:00:15;;;;;;;27.52;11.90;;;1.50;99.90;;;;;;4996205;28;20026;-78
2020/12/11 05:02:42;;;;;;;22.25;10.45;;;1.50;99.90;;;;;;4996004;28;20023;-78
2020/12/11 05:05:09;;;;;;;21.27;10.75;;;1.50;99.90;;;;;;4996283;28;20088;-78
2020/12/11 05:07:36;;;;;;;24.15;10.18;;;1.50;99.90;;;;;;4995472;28;20038;-78
2020/12/11 05:10:02;;;;;;;24.50;11.00;;;1.60;99.90;;;;;;4993933;28;20429;-78
2020/12/11 05:12:28;;;;;;;20.90;10.70;;;1.50;99.90;;;;;;4992795;28;20101;-79
2020/12/11 05:15:03;;;;;;;21.23;11.20;;;1.50;99.90;;;;;;4994141;28;20062;-78
2020/12/11 05:17:34;;;;;;;22.40;11.55;;;1.50;99.90;;;;;;4993830;28;20057;-78
2020/12/11 05:20:00;;;;;;;25.25;11.25;;;1.50;99.90;;;;;;4995425;28;20037;-79
2020/12/11 05:22:37;;;;;;;22.33;11.18;;;1.50;99.90;;;;;;4992422;28;20037;-78
2020/12/11 05:25:12;;;;;;;19.10;10.63;;;1.50;99.90;;;;;;4993706;28;20031;-78
2020/12/11 05:27:47;;;;;;;20.02;10.85;;;1.50;99.90;;;;;;4994625;28;20099;-78
2020/12/11 05:30:15;;;;;;;19.83;10.15;;;1.60;99.90;;;;;;4993271;28;20037;-79
2020/12/11 05:32:50;;;;;;;23.02;11.50;;;1.70;99.90;;;;;;4992029;28;20069;-78
2020/12/11 05:35:21;;;;;;;18.75;9.85;;;1.70;99.90;;;;;;4992341;28;20065;-78
2020/12/11 05:37:51;;;;;;;20.63;11.73;;;1.80;99.90;;;;;;4993673;28;20027;-78
2020/12/11 05:40:28;;;;;;;20.88;10.70;;;1.80;99.90;;;;;;4993123;28;20026;-79
2020/12/11 05:43:21;;;;;;;21.13;11.32;;;1.80;99.90;;;;;;4993203;28;20065;-78
2020/12/11 05:45:49;;;;;;;20.52;9.93;;;1.90;99.90;;;;;;4987386;28;20448;-78
2020/12/11 05:48:15;;;;;;;19.05;10.38;;;2.00;99.90;;;;;;4990813;28;20033;-78
2020/12/11 05:50:41;;;;;;;21.73;10.95;;;2.00;99.90;;;;;;4992962;28;20015;-78
2020/12/11 05:53:07;;;;;;;20.38;10.15;;;2.10;99.90;;;;;;4994817;28;20031;-79
2020/12/11 05:55:32;;;;;;;20.88;10.43;;;2.10;99.90;;;;;;5006242;28;20117;-78
2020/12/11 05:57:59;;;;;;;17.90;10.07;;;2.10;99.90;;;;;;5012780;28;20011;-78
2020/12/11 06:00:26;;;;;;;20.50;9.43;;;2.10;99.90;;;;;;5014197;28;20018;-79
2020/12/11 06:02:53;;;;;;;18.10;9.30;;;2.20;99.90;;;;;;5015953;28;20044;-79
2020/12/11 06:05:20;;;;;;;18.38;10.00;;;2.20;99.90;;;;;;5015920;28;20038;-79
2020/12/11 06:07:47;;;;;;;16.85;8.98;;;2.20;99.90;;;;;;4979074;28;581847;-78
2020/12/11 06:10:15;;;;;;;17.57;8.33;;;2.30;99.90;;;;;;5000447;28;20038;-78
2020/12/11 06:12:41;;;;;;;16.38;10.02;;;2.30;99.90;;;;;;4997841;28;20029;-78
2020/12/11 06:15:25;;;;;;;19.55;10.10;;;2.40;99.90;;;;;;4997359;28;20030;-78
2020/12/11 06:18:06;;;;;;;20.40;10.02;;;2.40;99.90;;;;;;4994110;28;20390;-78
2020/12/11 06:20:33;;;;;;;19.10;9.70;;;2.40;99.90;;;;;;4993128;28;20058;-78
2020/12/11 06:23:28;;;;;;;22.83;10.48;;;2.40;99.90;;;;;;4993921;28;20475;-78
2020/12/11 06:25:59;;;;;;;18.10;10.27;;;2.40;99.90;;;;;;4994082;28;20046;-78
2020/12/11 06:28:38;;;;;;;23.17;10.25;;;2.40;99.90;;;;;;4995116;28;20031;-78
2020/12/11 06:31:11;;;;;;;17.67;9.18;;;2.50;99.90;;;;;;4993820;28;20088;-78
2020/12/11 06:33:38;;;;;;;20.40;9.88;;;2.50;99.90;;;;;;4990885;28;20394;-78
2020/12/11 06:36:05;;;;;;;20.75;10.32;;;2.50;99.90;;;;;;4992654;28;20085;-78
2020/12/11 06:38:45;;;;;;;20.35;10.60;;;2.60;99.90;;;;;;4992299;28;20105;-78
2020/12/11 06:41:12;;;;;;;16.75;9.73;;;2.60;99.90;;;;;;4993186;28;20029;-79
2020/12/11 06:43:44;;;;;;;22.88;10.52;;;2.60;99.90;;;;;;4992364;28;20084;-78
2020/12/11 06:46:13;;;;;;;22.75;10.10;;;2.70;99.90;;;;;;4992373;28;20080;-78
2020/12/11 06:49:21;;;;;;;25.42;10.23;;;2.70;99.90;;;;;;4991222;28;20031;-77
2020/12/11 06:51:47;;;;;;;21.85;9.77;;;2.80;99.90;;;;;;4913574;29;20036;-78
2020/12/11 06:54:32;;;;;;;20.15;10.98;;;2.80;99.90;;;;;;4973830;28;20041;-78
2020/12/11 06:57:00;;;;;;;19.33;10.23;;;2.80;99.90;;;;;;4991937;28;20069;-78
2020/12/11 06:59:36;;;;;;;18.08;10.40;;;2.80;99.90;;;;;;4993055;28;20018;-78
2020/12/11 07:02:02;;;;;;;18.05;9.38;;;2.80;99.90;;;;;;4991689;28;20027;-77
2020/12/11 07:04:38;;;;;;;20.35;10.55;;;2.70;99.90;;;;;;4993457;28;20038;-78
2020/12/11 07:07:03;;;;;;;18.27;9.60;;;2.70;99.90;;;;;;4987817;28;20097;-78
2020/12/11 07:09:29;;;;;;;21.50;11.00;;;2.60;99.90;;;;;;4992168;28;20542;-78
2020/12/11 07:11:56;;;;;;;18.17;9.95;;;2.60;99.90;;;;;;4994179;28;20030;-78
2020/12/11 07:14:28;;;;;;;23.97;11.40;;;2.60;99.90;;;;;;5008798;28;20533;-78
2020/12/11 07:16:53;;;;;;;19.17;9.90;;;2.60;99.90;;;;;;5004233;28;20038;-78
2020/12/11 07:19:19;;;;;;;22.25;9.90;;;2.60;99.90;;;;;;5009670;28;20046;-78
2020/12/11 07:21:46;;;;;;;16.42;9.63;;;2.60;99.90;;;;;;5014714;28;20046;-79
2020/12/11 07:24:13;;;;;;;19.80;9.35;;;2.60;99.90;;;;;;5016451;28;20026;-78
2020/12/11 07:26:40;;;;;;;20.35;10.52;;;2.70;99.90;;;;;;5003775;28;20390;-80
2020/12/11 07:29:11;;;;;;;21.63;10.73;;;2.70;99.90;;;;;;4999755;28;20077;-79
2020/12/11 07:31:44;;;;;;;18.00;10.45;;;2.80;99.90;;;;;;4996100;28;20033;-79
2020/12/11 07:34:18;;;;;;;19.23;10.23;;;2.80;99.90;;;;;;4995714;28;20387;-79
2020/12/11 07:36:48;;;;;;;20.45;10.73;;;2.80;99.90;;;;;;4994592;28;20046;-78
2020/12/11 07:39:15;;;;;;;18.85;10.43;;;2.80;99.90;;;;;;4994774;28;20026;-78
2020/12/11 07:41:45;;;;;;;21.35;10.43;;;2.90;99.90;;;;;;4992901;28;20034;-78
2020/12/11 07:44:23;;;;;;;24.75;11.70;;;2.90;99.90;;;;;;4993089;28;20073;-78
2020/12/11 07:46:50;;;;;;;23.45;10.63;;;3.00;99.90;;;;;;4994279;28;20030;-78
2020/12/11 07:49:15;;;;;;;16.70;9.48;;;3.00;99.90;;;;;;4993441;28;20348;-78
2020/12/11 07:51:48;;;;;;;15.52;8.82;;;3.00;99.90;;;;;;4994368;28;20023;-78
2020/12/11 07:54:15;;;;;;;22.75;10.98;;;3.00;99.90;;;;;;4994980;28;20121;-78
2020/12/11 07:56:40;;;;;;;21.98;9.75;;;3.10;99.90;;;;;;4991914;28;20125;-78
2020/12/11 07:59:14;;;;;;;22.63;10.23;;;3.10;99.90;;;;;;4994057;28;20110;-78
2020/12/11 08:01:42;;;;;;;20.77;9.40;;;3.00;99.90;;;;;;4981504;28;20110;-78
2020/12/11 08:04:07;;;;;;;22.48;10.32;;;3.00;99.90;;;;;;4991831;28;20089;-79
2020/12/11 08:06:33;;;;;;;19.00;9.57;;;3.00;99.90;;;;;;4993283;28;20026;-78
2020/12/11 08:09:10;;;;;;;19.80;10.23;;;3.10;99.90;;;;;;4992050;28;20046;-78
2020/12/11 08:11:36;;;;;;;17.75;10.10;;;3.10;99.90;;;;;;4993917;28;20030;-78
2020/12/11 08:14:03;;;;;;;18.98;10.18;;;3.20;99.90;;;;;;4994470;28;20051;-78
2020/12/11 08:16:30;;;;;;;17.38;9.80;;;3.20;99.90;;;;;;4994290;28;20042;-77
2020/12/11 08:18:57;;;;;;;20.90;10.05;;;3.20;99.90;;;;;;4985535;28;20374;-78
2020/12/11 08:21:33;;;;;;;16.92;9.20;;;3.20;99.90;;;;;;4996206;28;20387;-78
2020/12/11 08:23:59;;;;;;;18.08;9.60;;;3.10;99.90;;;;;;4985257;28;20023;-78
2020/12/11 08:26:35;;;;;;;23.02;10.23;;;3.10;99.90;;;;;;4980234;28;20019;-78
2020/12/11 08:29:04;;;;;;;20.58;9.80;;;3.10;99.90;;;;;;4991120;28;20033;-79
2020/12/11 08:31:36;;;;;;;18.27;10.23;;;3.10;99.90;;;;;;4998949;28;21523;-78
2020/12/11 08:34:12;;;;;;;18.23;9.27;;;3.10;99.90;;;;;;5008849;28;20102;-79
2020/12/11 08:36:42;;;;;;;19.13;9.35;;;3.00;99.90;;;;;;5010937;28;20029;-80
2020/12/11 08:39:19;;;;;;;24.10;10.25;;;3.10;99.90;;;;;;5015943;28;20038;-76
2020/12/11 08:42:04;;;;;;;19.80;9.48;;;3.10;99.90;;;;;;5011131;28;20049;-76
2020/12/11 08:44:46;;;;;;;17.60;9.82;;;3.10;99.90;;;;;;5001271;28;20035;-75
2020/12/11 08:49:56;;;;;;;21.52;11.23;;;3.10;99.90;;;;;;4995525;28;20038;-75
2020/12/11 08:52:21;;;;;;;18.52;10.55;;;3.10;99.90;;;;;;4993139;28;20038;-75
2020/12/11 08:54:50;;;;;;;21.20;9.95;;;3.20;99.90;;;;;;4990991;28;20109;-75
2020/12/11 08:57:15;;;;;;;17.60;9.52;;;3.20;99.90;;;;;;4991122;28;20030;-76
2020/12/11 08:59:41;;;;;;;22.77;10.35;;;3.10;99.90;;;;;;4992105;28;20053;-75
2020/12/11 09:02:07;;;;;;;27.00;10.73;;;3.20;99.90;;;;;;4990750;28;20089;-75
2020/12/11 09:04:32;;;;;;;19.27;9.60;;;3.20;99.90;;;;;;4988523;28;20023;-76
2020/12/11 09:06:58;;;;;;;16.83;8.93;;;3.30;99.90;;;;;;4992142;28;20449;-76
2020/12/11 09:09:24;;;;;;;19.27;10.20;;;3.30;99.90;;;;;;4995477;28;20034;-75
2020/12/11 09:11:49;;;;;;;19.40;9.77;;;3.30;99.90;;;;;;4992922;28;20446;-76
2020/12/11 09:14:15;;;;;;;20.13;10.48;;;3.30;99.90;;;;;;4995923;28;20370;-76
2020/12/11 09:16:41;;;;;;;16.52;9.32;;;3.30;99.90;;;;;;4995943;28;20038;-75
2020/12/11 09:19:06;;;;;;;19.23;9.30;;;3.30;99.90;;;;;;4996165;28;20449;-76
2020/12/11 09:21:32;;;;;;;27.65;10.75;;;3.30;99.90;;;;;;4996725;28;20521;-76
2020/12/11 09:23:58;;;;;;;20.33;10.15;;;3.30;99.90;;;;;;4997272;28;20030;-76
2020/12/11 09:26:26;;;;;;;18.33;10.55;;;3.40;99.90;;;;;;4995627;28;20026;-76
2020/12/11 09:28:59;;;;;;;15.93;8.82;;;3.40;99.90;;;;;;4995629;28;20608;-75
2020/12/11 09:31:26;;;;;;;20.08;9.68;;;3.40;99.90;;;;;;4990668;28;20018;-76
2020/12/11 09:33:52;;;;;;;20.83;10.48;;;3.50;99.90;;;;;;4992963;28;20410;-76
2020/12/11 09:36:17;;;;;;;19.60;9.98;;;3.50;99.90;;;;;;4994693;28;20505;-77
2020/12/11 09:38:43;;;;;;;20.50;9.38;;;3.50;99.90;;;;;;4993906;28;20038;-77
2020/12/11 09:41:12;;;;;;;17.00;8.93;;;3.50;99.90;;;;;;4995448;28;20057;-76
2020/12/11 09:46:22;;;;;;;24.55;10.35;;;3.50;99.90;;;;;;4997830;28;20465;-77
2020/12/11 09:56:28;;;;;;;17.95;9.93;;;3.70;99.90;;;;;;5005443;28;20038;-76
2020/12/11 09:59:56;;;;;;;17.00;9.68;;;3.60;99.90;;;;;;4997877;28;20023;-77
2020/12/11 10:02:07;;;;;;;17.67;9.32;;;3.60;99.90;;;;;;4989743;28;20096;-77
2020/12/11 10:04:33;;;;;;;18.77;8.43;;;3.70;99.90;;;;;;4993116;28;20105;-77
2020/12/11 10:06:58;;;;;;;18.60;10.15;;;3.70;99.90;;;;;;4995018;28;20484;-76
2020/12/11 10:09:24;;;;;;;16.98;9.32;;;3.80;99.90;;;;;;4993859;28;20022;-76
2020/12/11 10:11:51;;;;;;;21.05;9.60;;;3.90;99.90;;;;;;4993553;28;20394;-75
2020/12/11 10:16:55;;;;;;;18.98;9.88;;;4.00;99.90;;;;;;4994111;28;20066;-77
2020/12/11 10:19:21;;;;;;;16.42;9.15;;;4.00;99.90;;;;;;4992199;28;20030;-77
2020/12/11 10:21:48;;;;;;;19.50;9.63;;;3.90;99.90;;;;;;4990726;28;20041;-75
2020/12/11 10:24:15;;;;;;;17.52;10.13;;;3.90;99.90;;;;;;4992963;28;20018;-77
2020/12/11 10:26:41;;;;;;;18.70;9.23;;;3.90;99.90;;;;;;4995015;28;20026;-75
2020/12/11 10:29:08;;;;;;;15.43;9.48;;;4.00;99.90;;;;;;4994428;28;20052;-78
2020/12/11 10:31:34;;;;;;;16.60;8.80;;;4.10;99.90;;;;;;4993106;28;20446;-78
2020/12/11 10:34:00;;;;;;;16.17;8.68;;;4.20;99.90;;;;;;4992508;28;20038;-78
2020/12/11 10:36:30;;;;;;;15.40;8.77;;;4.30;99.90;;;;;;4993313;28;20146;-75
2020/12/11 10:38:56;;;;;;;14.40;8.43;;;4.30;99.90;;;;;;4991201;28;20491;-76
2020/12/11 10:41:22;;;;;;;15.88;9.02;;;4.20;99.90;;;;;;4993960;28;20100;-78
2020/12/11 10:43:49;;;;;;;17.08;8.88;;;4.20;99.90;;;;;;4992345;28;20030;-77
2020/12/11 10:46:15;;;;;;;19.08;9.13;;;4.10;99.90;;;;;;4994527;28;20019;-77
2020/12/11 10:48:41;;;;;;;17.55;10.13;;;4.10;99.90;;;;;;4992201;28;20038;-78
2020/12/11 10:51:12;;;;;;;18.23;9.57;;;4.10;99.90;;;;;;4994254;28;20030;-77
2020/12/11 10:53:38;;;;;;;16.02;9.13;;;4.10;99.90;;;;;;4996066;28;20390;-77
2020/12/11 10:56:05;;;;;;;20.02;9.02;;;4.20;99.90;;;;;;4993871;28;20095;-78
2020/12/11 10:58:30;;;;;;;17.65;9.25;;;4.20;99.90;;;;;;4994294;28;20031;-77
2020/12/11 11:00:56;;;;;;;15.40;9.13;;;4.20;99.90;;;;;;4994316;28;20049;-79
2020/12/11 11:03:22;;;;;;;19.92;9.70;;;4.30;99.90;;;;;;4993350;28;20510;-78
2020/12/11 11:05:47;;;;;;;19.15;9.63;;;4.40;99.90;;;;;;4993867;28;20037;-79
2020/12/11 11:08:14;;;;;;;22.50;10.73;;;4.50;99.90;;;;;;4995360;28;20534;-78
2020/12/11 11:10:43;;;;;;;20.60;9.60;;;4.50;99.90;;;;;;4993747;28;20022;-76
2020/12/11 11:15:46;;;;;;;21.15;9.90;;;4.50;99.90;;;;;;5011526;28;20018;-77
2020/12/11 11:18:20;;;;;;;18.77;10.05;;;4.40;99.90;;;;;;5013590;28;20046;-76
2020/12/11 11:23:54;;;;;;;19.65;9.52;;;4.30;99.90;;;;;;4998213;28;20053;-77
2020/12/11 11:28:51;;;;;;;19.38;10.80;;;4.20;99.90;;;;;;4998875;28;20034;-76
2020/12/11 11:31:17;;;;;;;21.27;11.20;;;4.20;99.90;;;;;;4989952;28;20042;-76
2020/12/11 11:33:45;;;;;;;20.60;10.35;;;4.10;99.90;;;;;;4988245;28;20105;-77
2020/12/11 11:36:11;;;;;;;24.98;12.50;;;4.20;99.90;;;;;;4991648;28;20052;-77
2020/12/11 11:38:37;;;;;;;26.23;13.55;;;4.10;99.90;;;;;;4987784;28;20018;-77
2020/12/11 11:41:02;;;;;;;24.45;12.05;;;4.00;99.90;;;;;;4993175;28;20030;-78
2020/12/11 11:46:12;;;;;;;47.28;25.15;;;4.00;99.90;;;;;;4989188;28;20081;-78
2020/12/11 11:48:40;;;;;;;31.58;15.38;;;3.90;99.90;;;;;;4988452;28;20026;-77
2020/12/11 11:51:24;;;;;;;;;;;3.80;99.90;;;;;;4988843;28;20098;-76
2020/12/11 11:53:49;;;;;;;25.75;11.98;;;3.80;99.90;;;;;;4986801;28;19945;-77
2020/12/11 11:56:19;;;;;;;27.02;12.75;;;3.90;99.90;;;;;;4991387;28;20023;-76
2020/12/11 11:58:46;;;;;;;23.73;13.10;;;3.90;99.90;;;;;;4991907;28;20042;-76
2020/12/11 12:01:13;;;;;;;24.98;12.68;;;3.90;99.90;;;;;;4989259;28;20431;-77
2020/12/11 12:03:38;;;;;;;28.73;12.52;;;3.90;99.90;;;;;;4989658;28;20046;-77
2020/12/11 12:06:05;;;;;;;24.55;12.32;;;3.90;99.90;;;;;;4990162;28;20023;-78
2020/12/11 12:08:31;;;;;;;23.10;12.45;;;4.00;99.90;;;;;;4993944;28;20026;-77
2020/12/11 12:10:56;;;;;;;21.58;11.88;;;4.00;99.90;;;;;;4991380;28;20085;-78
2020/12/11 12:13:22;;;;;;;25.63;12.60;;;4.00;99.90;;;;;;4991660;28;22145;-78
2020/12/11 12:15:50;;;;;;;23.42;12.15;;;4.00;99.90;;;;;;4991103;28;20042;-77
2020/12/11 12:18:16;;;;;;;28.73;14.55;;;4.00;99.90;;;;;;4991159;28;20109;-77
2020/12/11 12:31:15;;;;;;;25.58;13.40;;;4.10;99.90;;;;;;4993893;28;20388;-77
2020/12/11 12:34:15;;;;;;;21.98;12.77;;;4.30;99.90;;;;;;4997345;28;20022;-77
2020/12/11 12:39:49;;;;;;;33.30;15.80;;;4.40;99.90;;;;;;5000371;28;20019;-77
2020/12/11 12:44:43;;;;;;;27.23;14.75;;;4.40;99.90;;;;;;5018986;28;20027;-76
2020/12/11 12:47:09;;;;;;;24.67;12.38;;;4.40;99.90;;;;;;5015453;28;20064;-76
2020/12/11 12:49:35;;;;;;;28.45;12.13;;;4.50;99.90;;;;;;5006211;28;20034;-78
2020/12/11 12:52:00;;;;;;;24.25;13.43;;;4.50;99.90;;;;;;5005725;28;20019;-84
2020/12/11 12:54:26;;;;;;;22.85;12.70;;;4.60;99.90;;;;;;5001178;28;20030;-79
2020/12/11 12:56:55;;;;;;;24.60;12.80;;;4.60;99.90;;;;;;4998123;28;20121;-80
2020/12/11 13:06:56;;;;;;;23.17;12.38;;;4.70;99.90;;;;;;4998161;28;20038;-78
2020/12/11 13:09:21;;;;;;;20.27;12.20;;;4.70;99.90;;;;;;4994472;28;20096;-78
2020/12/11 13:11:50;;;;;;;23.85;12.27;;;4.70;99.90;;;;;;4997769;28;20050;-78
2020/12/11 13:14:16;;;;;;;24.48;12.55;;;4.70;99.90;;;;;;4997678;28;20137;-78
2020/12/11 13:16:42;;;;;;;22.55;12.75;;;4.70;99.90;;;;;;4993566;28;20495;-78
2020/12/11 13:19:11;;;;;;;23.40;12.30;;;4.60;99.90;;;;;;4993375;28;20467;-78
2020/12/11 13:21:49;;;;;;;22.30;12.40;;;4.60;99.90;;;;;;4998099;28;20514;-79
2020/12/11 13:27:05;;;;;;;22.55;11.32;;;4.60;99.90;;;;;;4996770;28;20073;-76
2020/12/11 13:29:31;;;;;;;23.48;12.90;;;4.50;99.90;;;;;;4995288;28;20030;-75
2020/12/11 13:31:58;;;;;;;24.88;13.52;;;4.60;99.90;;;;;;4996951;28;20089;-76
2020/12/11 13:34:24;;;;;;;23.52;12.27;;;4.70;99.90;;;;;;4995099;28;20074;-76
2020/12/11 13:36:50;;;;;;;21.65;11.75;;;4.70;99.90;;;;;;4996904;28;20049;-77
2020/12/11 13:39:15;;;;;;;26.92;12.85;;;4.70;99.90;;;;;;4996317;28;20030;-75